sensor_id;sensor_type;location;lat;lon;timestamp;P1;durP1;ratioP1;P2;durP2;ratioP2
21806;SDS011;11065;50.786;7.840;2023-03-23T00:02:22;2.47;;;1.03;;
21806;SDS011;11065;50.786;7.840;2023-03-23T00:04:50;2.27;;;1.10;;
21806;SDS011;11065;50.786;7.840;2023-03-23T00:07:17;2.50;;;1.10;;
21806;SDS011;11065;50.786;7.840;2023-03-23T00:09:46;1.90;;;0.90;;
21806;SDS011;11065;50.786;7.840;2023-03-23T00:12:18;2.30;;;0.80;;
21806;SDS011;11065;50.786;7.840;2023-03-23T00:14:48;1.77;;;0.80;;
21806;SDS011;11065;50.786;7.840;2023-03-23T00:17:19;1.30;;;0.90;;
21806;SDS011;11065;50.786;7.840;2023-03-23T00:19:46;3.10;;;0.80;;
21806;SDS011;11065;50.786;7.840;2023-03-23T00:22:13;2.03;;;1.00;;
21806;SDS011;11065;50.786;7.840;2023-03-23T00:24:42;3.47;;;1.30;;
21806;SDS011;11065;50.786;7.840;2023-03-23T00:27:10;1.87;;;0.90;;
21806;SDS011;11065;50.786;7.840;2023-03-23T00:29:41;1.67;;;0.77;;
21806;SDS011;11065;50.786;7.840;2023-03-23T00:32:12;2.10;;;1.00;;
21806;SDS011;11065;50.786;7.840;2023-03-23T00:34:40;1.87;;;0.93;;
21806;SDS011;11065;50.786;7.840;2023-03-23T00:37:08;2.17;;;0.90;;
21806;SDS011;11065;50.786;7.840;2023-03-23T00:39:37;2.53;;;0.80;;
21806;SDS011;11065;50.786;7.840;2023-03-23T00:42:11;2.30;;;0.90;;
21806;SDS011;11065;50.786;7.840;2023-03-23T00:44:39;1.67;;;0.90;;
21806;SDS011;11065;50.786;7.840;2023-03-23T00:47:06;2.47;;;0.80;;
21806;SDS011;11065;50.786;7.840;2023-03-23T00:49:38;2.57;;;0.90;;
21806;SDS011;11065;50.786;7.840;2023-03-23T00:52:06;2.87;;;1.17;;
21806;SDS011;11065;50.786;7.840;2023-03-23T00:54:33;2.80;;;0.80;;
21806;SDS011;11065;50.786;7.840;2023-03-23T00:57:03;2.30;;;0.80;;
21806;SDS011;11065;50.786;7.840;2023-03-23T00:59:31;1.20;;;0.80;;
21806;SDS011;11065;50.786;7.840;2023-03-23T01:01:58;1.63;;;0.80;;
21806;SDS011;11065;50.786;7.840;2023-03-23T01:04:25;2.60;;;0.80;;
21806;SDS011;11065;50.786;7.840;2023-03-23T01:06:55;2.40;;;0.93;;
21806;SDS011;11065;50.786;7.840;2023-03-23T01:09:22;1.80;;;0.80;;
21806;SDS011;11065;50.786;7.840;2023-03-23T01:11:49;1.37;;;0.80;;
21806;SDS011;11065;50.786;7.840;2023-03-23T01:14:18;1.83;;;0.83;;
21806;SDS011;11065;50.786;7.840;2023-03-23T01:16:48;2.53;;;1.00;;
21806;SDS011;11065;50.786;7.840;2023-03-23T01:19:16;2.90;;;1.00;;
21806;SDS011;11065;50.786;7.840;2023-03-23T01:21:43;2.77;;;1.30;;
21806;SDS011;11065;50.786;7.840;2023-03-23T01:24:11;2.13;;;0.83;;
21806;SDS011;11065;50.786;7.840;2023-03-23T01:26:38;1.80;;;0.77;;
21806;SDS011;11065;50.786;7.840;2023-03-23T01:29:05;1.27;;;0.90;;
21806;SDS011;11065;50.786;7.840;2023-03-23T01:31:33;1.60;;;1.00;;
21806;SDS011;11065;50.786;7.840;2023-03-23T01:34:02;3.20;;;1.00;;
21806;SDS011;11065;50.786;7.840;2023-03-23T01:36:30;1.63;;;0.73;;
21806;SDS011;11065;50.786;7.840;2023-03-23T01:39:01;1.57;;;0.70;;
21806;SDS011;11065;50.786;7.840;2023-03-23T01:41:32;1.87;;;0.80;;
21806;SDS011;11065;50.786;7.840;2023-03-23T01:44:06;1.03;;;0.60;;
21806;SDS011;11065;50.786;7.840;2023-03-23T01:46:41;1.33;;;0.67;;
21806;SDS011;11065;50.786;7.840;2023-03-23T01:49:09;1.57;;;0.80;;
21806;SDS011;11065;50.786;7.840;2023-03-23T01:51:41;1.90;;;0.80;;
21806;SDS011;11065;50.786;7.840;2023-03-23T01:54:12;2.13;;;0.90;;
21806;SDS011;11065;50.786;7.840;2023-03-23T01:56:47;2.50;;;0.80;;
21806;SDS011;11065;50.786;7.840;2023-03-23T01:59:19;1.90;;;0.80;;
21806;SDS011;11065;50.786;7.840;2023-03-23T02:01:54;2.40;;;1.20;;
21806;SDS011;11065;50.786;7.840;2023-03-23T02:04:24;2.67;;;0.80;;
21806;SDS011;11065;50.786;7.840;2023-03-23T02:06:52;1.50;;;0.73;;
21806;SDS011;11065;50.786;7.840;2023-03-23T02:09:22;1.93;;;0.90;;
21806;SDS011;11065;50.786;7.840;2023-03-23T02:11:50;1.73;;;1.00;;
21806;SDS011;11065;50.786;7.840;2023-03-23T02:14:19;1.97;;;0.90;;
21806;SDS011;11065;50.786;7.840;2023-03-23T02:16:48;1.97;;;0.80;;
21806;SDS011;11065;50.786;7.840;2023-03-23T02:19:34;2.27;;;0.93;;
21806;SDS011;11065;50.786;7.840;2023-03-23T02:22:26;1.00;;;0.60;;
21806;SDS011;11065;50.786;7.840;2023-03-23T02:25:19;1.80;;;0.90;;
21806;SDS011;11065;50.786;7.840;2023-03-23T02:31:09;2.53;;;0.90;;
21806;SDS011;11065;50.786;7.840;2023-03-23T02:33:49;1.50;;;0.70;;
21806;SDS011;11065;50.786;7.840;2023-03-23T02:36:23;1.07;;;0.70;;
21806;SDS011;11065;50.786;7.840;2023-03-23T02:38:56;1.50;;;1.00;;
21806;SDS011;11065;50.786;7.840;2023-03-23T02:41:28;2.33;;;0.83;;
21806;SDS011;11065;50.786;7.840;2023-03-23T02:44:01;2.37;;;1.23;;
21806;SDS011;11065;50.786;7.840;2023-03-23T02:46:29;1.37;;;0.80;;
21806;SDS011;11065;50.786;7.840;2023-03-23T02:48:59;2.03;;;0.90;;
21806;SDS011;11065;50.786;7.840;2023-03-23T02:51:28;1.60;;;0.80;;
21806;SDS011;11065;50.786;7.840;2023-03-23T02:53:56;1.10;;;0.80;;
21806;SDS011;11065;50.786;7.840;2023-03-23T02:56:25;1.37;;;1.00;;
21806;SDS011;11065;50.786;7.840;2023-03-23T02:58:55;2.00;;;0.83;;
21806;SDS011;11065;50.786;7.840;2023-03-23T03:04:29;1.53;;;0.90;;
21806;SDS011;11065;50.786;7.840;2023-03-23T03:07:02;2.00;;;0.80;;
21806;SDS011;11065;50.786;7.840;2023-03-23T03:09:46;1.47;;;0.80;;
21806;SDS011;11065;50.786;7.840;2023-03-23T03:12:18;2.50;;;0.73;;
21806;SDS011;11065;50.786;7.840;2023-03-23T03:14:51;1.33;;;0.77;;
21806;SDS011;11065;50.786;7.840;2023-03-23T03:17:24;1.37;;;0.80;;
21806;SDS011;11065;50.786;7.840;2023-03-23T03:19:54;2.20;;;0.90;;
21806;SDS011;11065;50.786;7.840;2023-03-23T03:22:25;1.53;;;0.80;;
21806;SDS011;11065;50.786;7.840;2023-03-23T03:24:55;2.47;;;0.83;;
21806;SDS011;11065;50.786;7.840;2023-03-23T03:27:24;1.53;;;0.70;;
21806;SDS011;11065;50.786;7.840;2023-03-23T03:30:15;2.83;;;0.70;;
21806;SDS011;11065;50.786;7.840;2023-03-23T03:32:47;1.50;;;1.13;;
21806;SDS011;11065;50.786;7.840;2023-03-23T03:35:21;1.67;;;0.80;;
21806;SDS011;11065;50.786;7.840;2023-03-23T03:37:49;1.60;;;0.80;;
21806;SDS011;11065;50.786;7.840;2023-03-23T03:40:19;1.70;;;0.70;;
21806;SDS011;11065;50.786;7.840;2023-03-23T03:42:49;2.60;;;0.80;;
21806;SDS011;11065;50.786;7.840;2023-03-23T03:45:18;3.37;;;0.90;;
21806;SDS011;11065;50.786;7.840;2023-03-23T03:47:45;1.43;;;0.73;;
21806;SDS011;11065;50.786;7.840;2023-03-23T03:50:14;1.93;;;0.90;;
21806;SDS011;11065;50.786;7.840;2023-03-23T03:52:43;0.90;;;0.70;;
21806;SDS011;11065;50.786;7.840;2023-03-23T03:55:10;1.10;;;0.60;;
21806;SDS011;11065;50.786;7.840;2023-03-23T03:57:40;2.50;;;0.70;;
21806;SDS011;11065;50.786;7.840;2023-03-23T04:00:24;2.67;;;0.70;;
21806;SDS011;11065;50.786;7.840;2023-03-23T04:02:51;1.13;;;0.77;;
21806;SDS011;11065;50.786;7.840;2023-03-23T04:05:39;2.00;;;0.70;;
21806;SDS011;11065;50.786;7.840;2023-03-23T04:08:08;1.90;;;0.87;;
21806;SDS011;11065;50.786;7.840;2023-03-23T04:10:36;2.97;;;1.00;;
21806;SDS011;11065;50.786;7.840;2023-03-23T04:13:03;3.33;;;1.20;;
21806;SDS011;11065;50.786;7.840;2023-03-23T04:15:49;1.83;;;0.80;;
21806;SDS011;11065;50.786;7.840;2023-03-23T04:18:17;2.47;;;0.93;;
21806;SDS011;11065;50.786;7.840;2023-03-23T04:20:46;2.80;;;0.97;;
21806;SDS011;11065;50.786;7.840;2023-03-23T04:23:19;2.90;;;1.00;;
21806;SDS011;11065;50.786;7.840;2023-03-23T04:25:49;0.93;;;0.60;;
21806;SDS011;11065;50.786;7.840;2023-03-23T04:28:18;1.73;;;0.97;;
21806;SDS011;11065;50.786;7.840;2023-03-23T04:31:11;2.57;;;0.90;;
21806;SDS011;11065;50.786;7.840;2023-03-23T04:33:44;3.83;;;1.13;;
21806;SDS011;11065;50.786;7.840;2023-03-23T04:36:12;2.70;;;1.17;;
21806;SDS011;11065;50.786;7.840;2023-03-23T04:38:51;2.23;;;1.10;;
21806;SDS011;11065;50.786;7.840;2023-03-23T04:41:21;2.43;;;1.10;;
21806;SDS011;11065;50.786;7.840;2023-03-23T04:43:59;1.77;;;1.00;;
21806;SDS011;11065;50.786;7.840;2023-03-23T04:46:39;1.33;;;0.80;;
21806;SDS011;11065;50.786;7.840;2023-03-23T04:49:10;1.40;;;0.80;;
21806;SDS011;11065;50.786;7.840;2023-03-23T04:51:39;2.07;;;0.90;;
21806;SDS011;11065;50.786;7.840;2023-03-23T04:54:19;1.30;;;0.70;;
21806;SDS011;11065;50.786;7.840;2023-03-23T04:56:49;2.37;;;0.80;;
21806;SDS011;11065;50.786;7.840;2023-03-23T04:59:17;2.10;;;1.00;;
21806;SDS011;11065;50.786;7.840;2023-03-23T05:01:55;2.03;;;1.00;;
21806;SDS011;11065;50.786;7.840;2023-03-23T05:04:23;2.77;;;0.70;;
21806;SDS011;11065;50.786;7.840;2023-03-23T05:07:16;2.00;;;0.90;;
21806;SDS011;11065;50.786;7.840;2023-03-23T05:09:48;1.13;;;0.70;;
21806;SDS011;11065;50.786;7.840;2023-03-23T05:12:19;2.43;;;0.90;;
21806;SDS011;11065;50.786;7.840;2023-03-23T05:14:59;2.30;;;0.90;;
21806;SDS011;11065;50.786;7.840;2023-03-23T05:17:29;1.27;;;0.90;;
21806;SDS011;11065;50.786;7.840;2023-03-23T05:20:00;1.97;;;0.80;;
21806;SDS011;11065;50.786;7.840;2023-03-23T05:22:41;3.17;;;1.20;;
21806;SDS011;11065;50.786;7.840;2023-03-23T05:25:11;1.93;;;1.00;;
21806;SDS011;11065;50.786;7.840;2023-03-23T05:27:43;3.00;;;1.00;;
21806;SDS011;11065;50.786;7.840;2023-03-23T05:30:22;1.87;;;1.00;;
21806;SDS011;11065;50.786;7.840;2023-03-23T05:32:49;1.23;;;0.93;;
21806;SDS011;11065;50.786;7.840;2023-03-23T05:35:29;2.13;;;0.90;;
21806;SDS011;11065;50.786;7.840;2023-03-23T05:37:56;1.40;;;1.03;;
21806;SDS011;11065;50.786;7.840;2023-03-23T05:40:25;3.20;;;1.23;;
21806;SDS011;11065;50.786;7.840;2023-03-23T05:42:57;1.97;;;0.97;;
21806;SDS011;11065;50.786;7.840;2023-03-23T05:45:41;1.53;;;0.90;;
21806;SDS011;11065;50.786;7.840;2023-03-23T05:48:08;2.60;;;1.00;;
21806;SDS011;11065;50.786;7.840;2023-03-23T05:50:35;1.80;;;1.00;;
21806;SDS011;11065;50.786;7.840;2023-03-23T05:53:03;2.77;;;0.97;;
21806;SDS011;11065;50.786;7.840;2023-03-23T05:55:34;1.90;;;1.20;;
21806;SDS011;11065;50.786;7.840;2023-03-23T05:58:15;1.53;;;1.00;;
21806;SDS011;11065;50.786;7.840;2023-03-23T06:00:44;2.23;;;1.13;;
21806;SDS011;11065;50.786;7.840;2023-03-23T06:03:19;1.50;;;0.93;;
21806;SDS011;11065;50.786;7.840;2023-03-23T06:05:56;1.80;;;0.93;;
21806;SDS011;11065;50.786;7.840;2023-03-23T06:08:31;2.07;;;1.10;;
21806;SDS011;11065;50.786;7.840;2023-03-23T06:10:59;1.80;;;0.87;;
21806;SDS011;11065;50.786;7.840;2023-03-23T06:13:29;2.17;;;0.87;;
21806;SDS011;11065;50.786;7.840;2023-03-23T06:16:03;1.33;;;1.00;;
21806;SDS011;11065;50.786;7.840;2023-03-23T06:18:45;2.80;;;1.03;;
21806;SDS011;11065;50.786;7.840;2023-03-23T06:21:18;1.63;;;0.87;;
21806;SDS011;11065;50.786;7.840;2023-03-23T06:23:55;1.60;;;1.00;;
21806;SDS011;11065;50.786;7.840;2023-03-23T06:26:30;1.37;;;0.90;;
21806;SDS011;11065;50.786;7.840;2023-03-23T06:29:07;1.97;;;1.20;;
21806;SDS011;11065;50.786;7.840;2023-03-23T06:31:42;2.23;;;1.07;;
21806;SDS011;11065;50.786;7.840;2023-03-23T06:34:12;1.60;;;0.90;;
21806;SDS011;11065;50.786;7.840;2023-03-23T06:36:57;2.83;;;1.40;;
21806;SDS011;11065;50.786;7.840;2023-03-23T06:39:48;1.30;;;0.90;;
21806;SDS011;11065;50.786;7.840;2023-03-23T06:42:38;1.00;;;0.80;;
21806;SDS011;11065;50.786;7.840;2023-03-23T06:45:24;1.67;;;0.80;;
21806;SDS011;11065;50.786;7.840;2023-03-23T06:48:04;1.87;;;0.90;;
21806;SDS011;11065;50.786;7.840;2023-03-23T06:50:32;1.80;;;0.97;;
21806;SDS011;11065;50.786;7.840;2023-03-23T06:53:00;2.27;;;0.90;;
21806;SDS011;11065;50.786;7.840;2023-03-23T06:55:27;1.53;;;0.80;;
21806;SDS011;11065;50.786;7.840;2023-03-23T06:57:56;1.60;;;0.80;;
21806;SDS011;11065;50.786;7.840;2023-03-23T07:00:24;1.37;;;0.80;;
21806;SDS011;11065;50.786;7.840;2023-03-23T07:02:52;1.63;;;0.80;;
21806;SDS011;11065;50.786;7.840;2023-03-23T07:05:19;1.00;;;0.70;;
21806;SDS011;11065;50.786;7.840;2023-03-23T07:07:48;2.27;;;0.70;;
21806;SDS011;11065;50.786;7.840;2023-03-23T07:10:27;1.87;;;1.00;;
21806;SDS011;11065;50.786;7.840;2023-03-23T07:12:56;2.13;;;0.90;;
21806;SDS011;11065;50.786;7.840;2023-03-23T07:15:24;2.10;;;1.00;;
21806;SDS011;11065;50.786;7.840;2023-03-23T07:17:54;1.27;;;0.63;;
21806;SDS011;11065;50.786;7.840;2023-03-23T07:20:30;2.00;;;1.00;;
21806;SDS011;11065;50.786;7.840;2023-03-23T07:22:57;2.37;;;0.93;;
21806;SDS011;11065;50.786;7.840;2023-03-23T07:25:40;1.60;;;0.93;;
21806;SDS011;11065;50.786;7.840;2023-03-23T07:28:16;1.57;;;0.73;;
21806;SDS011;11065;50.786;7.840;2023-03-23T07:30:44;1.83;;;0.90;;
21806;SDS011;11065;50.786;7.840;2023-03-23T07:33:11;1.60;;;1.10;;
21806;SDS011;11065;50.786;7.840;2023-03-23T07:35:39;1.27;;;0.80;;
21806;SDS011;11065;50.786;7.840;2023-03-23T07:38:10;1.43;;;0.70;;
21806;SDS011;11065;50.786;7.840;2023-03-23T07:40:38;1.60;;;0.70;;
21806;SDS011;11065;50.786;7.840;2023-03-23T07:43:11;1.83;;;0.90;;
21806;SDS011;11065;50.786;7.840;2023-03-23T07:45:58;1.40;;;0.80;;
21806;SDS011;11065;50.786;7.840;2023-03-23T07:48:34;1.60;;;1.00;;
21806;SDS011;11065;50.786;7.840;2023-03-23T07:51:02;1.53;;;0.90;;
21806;SDS011;11065;50.786;7.840;2023-03-23T07:53:29;2.60;;;0.90;;
21806;SDS011;11065;50.786;7.840;2023-03-23T07:56:09;2.43;;;0.80;;
21806;SDS011;11065;50.786;7.840;2023-03-23T07:58:48;4.00;;;1.10;;
21806;SDS011;11065;50.786;7.840;2023-03-23T08:01:19;1.30;;;1.00;;
21806;SDS011;11065;50.786;7.840;2023-03-23T08:04:06;2.10;;;0.97;;
21806;SDS011;11065;50.786;7.840;2023-03-23T08:06:47;2.13;;;1.03;;
21806;SDS011;11065;50.786;7.840;2023-03-23T08:09:33;1.33;;;1.00;;
21806;SDS011;11065;50.786;7.840;2023-03-23T08:12:20;1.53;;;0.90;;
21806;SDS011;11065;50.786;7.840;2023-03-23T08:15:02;1.97;;;1.00;;
21806;SDS011;11065;50.786;7.840;2023-03-23T08:17:57;2.80;;;1.13;;
21806;SDS011;11065;50.786;7.840;2023-03-23T08:20:44;2.10;;;0.93;;
21806;SDS011;11065;50.786;7.840;2023-03-23T08:23:31;2.20;;;1.20;;
21806;SDS011;11065;50.786;7.840;2023-03-23T08:26:21;2.23;;;1.17;;
21806;SDS011;11065;50.786;7.840;2023-03-23T08:29:07;1.70;;;1.00;;
21806;SDS011;11065;50.786;7.840;2023-03-23T08:31:57;2.30;;;1.10;;
21806;SDS011;11065;50.786;7.840;2023-03-23T08:34:34;2.40;;;1.20;;
21806;SDS011;11065;50.786;7.840;2023-03-23T08:37:04;2.10;;;1.03;;
21806;SDS011;11065;50.786;7.840;2023-03-23T08:39:50;2.87;;;1.07;;
21806;SDS011;11065;50.786;7.840;2023-03-23T08:42:36;1.60;;;1.00;;
21806;SDS011;11065;50.786;7.840;2023-03-23T08:45:13;3.03;;;1.40;;
21806;SDS011;11065;50.786;7.840;2023-03-23T08:47:59;3.37;;;1.20;;
21806;SDS011;11065;50.786;7.840;2023-03-23T08:50:46;1.97;;;0.90;;
21806;SDS011;11065;50.786;7.840;2023-03-23T08:53:39;3.63;;;1.30;;
21806;SDS011;11065;50.786;7.840;2023-03-23T08:56:26;1.40;;;0.90;;
21806;SDS011;11065;50.786;7.840;2023-03-23T08:59:10;3.07;;;1.00;;
21806;SDS011;11065;50.786;7.840;2023-03-23T09:02:00;2.83;;;1.10;;
21806;SDS011;11065;50.786;7.840;2023-03-23T09:04:42;1.80;;;0.80;;
21806;SDS011;11065;50.786;7.840;2023-03-23T09:07:10;1.83;;;1.03;;
21806;SDS011;11065;50.786;7.840;2023-03-23T09:09:40;1.43;;;0.80;;
21806;SDS011;11065;50.786;7.840;2023-03-23T09:12:07;2.17;;;0.77;;
21806;SDS011;11065;50.786;7.840;2023-03-23T09:14:35;2.50;;;1.00;;
21806;SDS011;11065;50.786;7.840;2023-03-23T09:17:03;2.43;;;0.90;;
21806;SDS011;11065;50.786;7.840;2023-03-23T09:19:30;1.20;;;0.70;;
21806;SDS011;11065;50.786;7.840;2023-03-23T09:21:59;2.33;;;1.10;;
21806;SDS011;11065;50.786;7.840;2023-03-23T09:24:28;2.37;;;1.30;;
21806;SDS011;11065;50.786;7.840;2023-03-23T09:26:55;2.33;;;1.23;;
21806;SDS011;11065;50.786;7.840;2023-03-23T09:29:24;1.73;;;0.90;;
21806;SDS011;11065;50.786;7.840;2023-03-23T09:31:52;1.80;;;1.00;;
21806;SDS011;11065;50.786;7.840;2023-03-23T09:34:19;2.13;;;1.07;;
21806;SDS011;11065;50.786;7.840;2023-03-23T09:36:47;2.00;;;1.10;;
21806;SDS011;11065;50.786;7.840;2023-03-23T09:39:15;1.30;;;0.90;;
21806;SDS011;11065;50.786;7.840;2023-03-23T09:41:57;2.20;;;1.00;;
21806;SDS011;11065;50.786;7.840;2023-03-23T09:44:34;1.40;;;0.80;;
21806;SDS011;11065;50.786;7.840;2023-03-23T09:47:10;2.43;;;0.90;;
21806;SDS011;11065;50.786;7.840;2023-03-23T09:49:42;2.47;;;0.97;;
21806;SDS011;11065;50.786;7.840;2023-03-23T09:52:14;4.33;;;1.03;;
21806;SDS011;11065;50.786;7.840;2023-03-23T09:54:43;2.90;;;0.90;;
21806;SDS011;11065;50.786;7.840;2023-03-23T09:57:16;2.20;;;1.00;;
21806;SDS011;11065;50.786;7.840;2023-03-23T09:59:51;2.00;;;0.97;;
21806;SDS011;11065;50.786;7.840;2023-03-23T10:02:24;2.07;;;1.00;;
21806;SDS011;11065;50.786;7.840;2023-03-23T10:04:58;1.43;;;0.87;;
21806;SDS011;11065;50.786;7.840;2023-03-23T10:07:41;1.73;;;0.83;;
21806;SDS011;11065;50.786;7.840;2023-03-23T10:10:08;1.83;;;1.13;;
21806;SDS011;11065;50.786;7.840;2023-03-23T10:12:45;2.60;;;1.40;;
21806;SDS011;11065;50.786;7.840;2023-03-23T10:15:16;1.97;;;1.20;;
21806;SDS011;11065;50.786;7.840;2023-03-23T10:17:47;3.97;;;1.40;;
21806;SDS011;11065;50.786;7.840;2023-03-23T10:20:24;2.20;;;1.30;;
21806;SDS011;11065;50.786;7.840;2023-03-23T10:23:05;3.13;;;1.40;;
21806;SDS011;11065;50.786;7.840;2023-03-23T10:25:41;2.70;;;1.40;;
21806;SDS011;11065;50.786;7.840;2023-03-23T10:28:17;3.23;;;1.60;;
21806;SDS011;11065;50.786;7.840;2023-03-23T10:30:46;2.97;;;1.20;;
21806;SDS011;11065;50.786;7.840;2023-03-23T10:33:18;2.60;;;1.17;;
21806;SDS011;11065;50.786;7.840;2023-03-23T10:35:51;1.70;;;1.20;;
21806;SDS011;11065;50.786;7.840;2023-03-23T10:38:26;3.30;;;1.30;;
21806;SDS011;11065;50.786;7.840;2023-03-23T10:41:00;2.67;;;1.00;;
21806;SDS011;11065;50.786;7.840;2023-03-23T10:43:32;2.43;;;1.30;;
21806;SDS011;11065;50.786;7.840;2023-03-23T10:46:00;1.73;;;0.93;;
21806;SDS011;11065;50.786;7.840;2023-03-23T10:48:30;2.53;;;1.10;;
21806;SDS011;11065;50.786;7.840;2023-03-23T10:50:59;2.03;;;1.10;;
21806;SDS011;11065;50.786;7.840;2023-03-23T10:53:31;3.40;;;1.10;;
21806;SDS011;11065;50.786;7.840;2023-03-23T10:55:59;2.57;;;1.00;;
21806;SDS011;11065;50.786;7.840;2023-03-23T10:58:27;1.53;;;0.70;;
21806;SDS011;11065;50.786;7.840;2023-03-23T11:00:58;1.80;;;0.77;;
21806;SDS011;11065;50.786;7.840;2023-03-23T11:03:29;2.07;;;0.90;;
21806;SDS011;11065;50.786;7.840;2023-03-23T11:06:05;1.93;;;0.60;;
21806;SDS011;11065;50.786;7.840;2023-03-23T11:08:34;2.50;;;0.90;;
21806;SDS011;11065;50.786;7.840;2023-03-23T11:11:08;0.67;;;0.50;;
21806;SDS011;11065;50.786;7.840;2023-03-23T11:13:39;1.17;;;0.60;;
21806;SDS011;11065;50.786;7.840;2023-03-23T11:16:21;1.60;;;0.60;;
21806;SDS011;11065;50.786;7.840;2023-03-23T11:18:50;1.10;;;0.60;;
21806;SDS011;11065;50.786;7.840;2023-03-23T11:21:17;2.03;;;0.67;;
21806;SDS011;11065;50.786;7.840;2023-03-23T11:23:48;2.43;;;0.70;;
21806;SDS011;11065;50.786;7.840;2023-03-23T11:26:19;0.67;;;0.40;;
21806;SDS011;11065;50.786;7.840;2023-03-23T11:28:51;1.67;;;0.60;;
21806;SDS011;11065;50.786;7.840;2023-03-23T11:31:24;1.13;;;0.50;;
21806;SDS011;11065;50.786;7.840;2023-03-23T11:33:56;1.40;;;0.50;;
21806;SDS011;11065;50.786;7.840;2023-03-23T11:36:30;1.87;;;0.60;;
21806;SDS011;11065;50.786;7.840;2023-03-23T11:39:00;1.10;;;0.60;;
21806;SDS011;11065;50.786;7.840;2023-03-23T11:41:32;1.60;;;0.73;;
21806;SDS011;11065;50.786;7.840;2023-03-23T11:44:03;1.03;;;0.40;;
21806;SDS011;11065;50.786;7.840;2023-03-23T11:46:41;1.83;;;0.60;;
21806;SDS011;11065;50.786;7.840;2023-03-23T11:49:15;1.53;;;0.70;;
21806;SDS011;11065;50.786;7.840;2023-03-23T11:51:49;1.00;;;0.50;;
21806;SDS011;11065;50.786;7.840;2023-03-23T11:54:23;1.27;;;0.53;;
21806;SDS011;11065;50.786;7.840;2023-03-23T11:56:54;3.07;;;0.50;;
21806;SDS011;11065;50.786;7.840;2023-03-23T11:59:26;1.83;;;0.60;;
21806;SDS011;11065;50.786;7.840;2023-03-23T12:04:58;1.57;;;1.40;;
21806;SDS011;11065;50.786;7.840;2023-03-23T12:07:56;1.17;;;0.60;;
21806;SDS011;11065;50.786;7.840;2023-03-23T12:10:35;1.10;;;0.60;;
21806;SDS011;11065;50.786;7.840;2023-03-23T12:13:12;1.50;;;0.87;;
21806;SDS011;11065;50.786;7.840;2023-03-23T12:15:51;0.70;;;0.33;;
21806;SDS011;11065;50.786;7.840;2023-03-23T12:18:30;1.57;;;0.67;;
21806;SDS011;11065;50.786;7.840;2023-03-23T12:21:07;1.47;;;0.60;;
21806;SDS011;11065;50.786;7.840;2023-03-23T12:23:41;0.90;;;0.50;;
21806;SDS011;11065;50.786;7.840;2023-03-23T12:26:20;1.07;;;0.63;;
21806;SDS011;11065;50.786;7.840;2023-03-23T12:29:07;1.10;;;0.50;;
21806;SDS011;11065;50.786;7.840;2023-03-23T12:31:52;1.33;;;0.70;;
21806;SDS011;11065;50.786;7.840;2023-03-23T12:34:30;1.40;;;0.80;;
21806;SDS011;11065;50.786;7.840;2023-03-23T12:37:12;1.17;;;0.63;;
21806;SDS011;11065;50.786;7.840;2023-03-23T12:40:19;1.17;;;0.60;;
21806;SDS011;11065;50.786;7.840;2023-03-23T12:42:59;2.33;;;0.60;;
21806;SDS011;11065;50.786;7.840;2023-03-23T12:45:41;2.37;;;0.70;;
21806;SDS011;11065;50.786;7.840;2023-03-23T12:48:16;1.17;;;0.60;;
21806;SDS011;11065;50.786;7.840;2023-03-23T12:51:00;2.93;;;0.70;;
21806;SDS011;11065;50.786;7.840;2023-03-23T12:53:36;2.67;;;0.70;;
21806;SDS011;11065;50.786;7.840;2023-03-23T12:56:11;2.50;;;0.93;;
21806;SDS011;11065;50.786;7.840;2023-03-23T12:58:42;3.23;;;0.80;;
21806;SDS011;11065;50.786;7.840;2023-03-23T13:01:12;1.77;;;0.70;;
21806;SDS011;11065;50.786;7.840;2023-03-23T13:03:48;1.43;;;0.63;;
21806;SDS011;11065;50.786;7.840;2023-03-23T13:06:22;2.27;;;0.80;;
21806;SDS011;11065;50.786;7.840;2023-03-23T13:08:57;1.23;;;0.60;;
21806;SDS011;11065;50.786;7.840;2023-03-23T13:11:28;2.57;;;0.80;;
21806;SDS011;11065;50.786;7.840;2023-03-23T13:13:59;1.50;;;0.57;;
21806;SDS011;11065;50.786;7.840;2023-03-23T13:16:35;1.30;;;0.63;;
21806;SDS011;11065;50.786;7.840;2023-03-23T13:19:11;1.10;;;0.57;;
21806;SDS011;11065;50.786;7.840;2023-03-23T13:21:45;1.43;;;0.50;;
21806;SDS011;11065;50.786;7.840;2023-03-23T13:24:17;0.97;;;0.40;;
21806;SDS011;11065;50.786;7.840;2023-03-23T13:26:48;2.00;;;0.40;;
21806;SDS011;11065;50.786;7.840;2023-03-23T13:29:17;0.97;;;0.50;;
21806;SDS011;11065;50.786;7.840;2023-03-23T13:31:45;2.47;;;0.50;;
21806;SDS011;11065;50.786;7.840;2023-03-23T13:34:15;1.00;;;0.50;;
21806;SDS011;11065;50.786;7.840;2023-03-23T13:36:53;3.57;;;0.57;;
21806;SDS011;11065;50.786;7.840;2023-03-23T13:39:22;2.30;;;0.80;;
21806;SDS011;11065;50.786;7.840;2023-03-23T13:42:05;1.57;;;0.60;;
21806;SDS011;11065;50.786;7.840;2023-03-23T13:44:54;2.17;;;0.60;;
21806;SDS011;11065;50.786;7.840;2023-03-23T13:47:26;2.07;;;0.70;;
21806;SDS011;11065;50.786;7.840;2023-03-23T13:49:57;1.30;;;0.50;;
21806;SDS011;11065;50.786;7.840;2023-03-23T13:52:37;1.53;;;0.60;;
21806;SDS011;11065;50.786;7.840;2023-03-23T13:58:12;2.73;;;0.70;;
21806;SDS011;11065;50.786;7.840;2023-03-23T14:00:50;1.43;;;0.70;;
21806;SDS011;11065;50.786;7.840;2023-03-23T14:03:35;1.13;;;0.67;;
21806;SDS011;11065;50.786;7.840;2023-03-23T14:06:05;1.63;;;0.60;;
21806;SDS011;11065;50.786;7.840;2023-03-23T14:09:03;1.07;;;0.60;;
21806;SDS011;11065;50.786;7.840;2023-03-23T14:11:32;1.50;;;0.60;;
21806;SDS011;11065;50.786;7.840;2023-03-23T14:14:07;1.90;;;0.60;;
21806;SDS011;11065;50.786;7.840;2023-03-23T14:16:42;2.37;;;0.50;;
21806;SDS011;11065;50.786;7.840;2023-03-23T14:19:14;2.27;;;0.60;;
21806;SDS011;11065;50.786;7.840;2023-03-23T14:21:48;2.63;;;0.60;;
21806;SDS011;11065;50.786;7.840;2023-03-23T14:24:19;1.70;;;0.50;;
21806;SDS011;11065;50.786;7.840;2023-03-23T14:26:49;3.13;;;0.60;;
21806;SDS011;11065;50.786;7.840;2023-03-23T14:29:18;2.57;;;0.63;;
21806;SDS011;11065;50.786;7.840;2023-03-23T14:31:49;2.00;;;0.70;;
21806;SDS011;11065;50.786;7.840;2023-03-23T14:34:21;1.63;;;0.70;;
21806;SDS011;11065;50.786;7.840;2023-03-23T14:36:51;1.47;;;0.70;;
21806;SDS011;11065;50.786;7.840;2023-03-23T14:39:22;1.43;;;0.63;;
21806;SDS011;11065;50.786;7.840;2023-03-23T14:41:52;1.27;;;0.60;;
21806;SDS011;11065;50.786;7.840;2023-03-23T14:44:22;1.17;;;0.70;;
21806;SDS011;11065;50.786;7.840;2023-03-23T14:46:51;1.43;;;0.60;;
21806;SDS011;11065;50.786;7.840;2023-03-23T14:49:21;1.63;;;0.70;;
21806;SDS011;11065;50.786;7.840;2023-03-23T14:51:55;2.07;;;0.67;;
21806;SDS011;11065;50.786;7.840;2023-03-23T14:54:24;2.27;;;0.53;;
21806;SDS011;11065;50.786;7.840;2023-03-23T14:56:53;1.00;;;0.50;;
21806;SDS011;11065;50.786;7.840;2023-03-23T14:59:21;2.90;;;1.17;;
21806;SDS011;11065;50.786;7.840;2023-03-23T15:01:49;2.00;;;0.70;;
21806;SDS011;11065;50.786;7.840;2023-03-23T15:04:18;1.77;;;0.87;;
21806;SDS011;11065;50.786;7.840;2023-03-23T15:06:48;3.17;;;0.70;;
21806;SDS011;11065;50.786;7.840;2023-03-23T15:09:18;1.60;;;0.70;;
21806;SDS011;11065;50.786;7.840;2023-03-23T15:11:54;3.07;;;0.93;;
21806;SDS011;11065;50.786;7.840;2023-03-23T15:14:24;1.07;;;0.50;;
21806;SDS011;11065;50.786;7.840;2023-03-23T15:16:56;2.40;;;0.60;;
21806;SDS011;11065;50.786;7.840;2023-03-23T15:19:25;1.27;;;0.60;;
21806;SDS011;11065;50.786;7.840;2023-03-23T15:21:55;2.80;;;0.80;;
21806;SDS011;11065;50.786;7.840;2023-03-23T15:24:27;1.73;;;0.87;;
21806;SDS011;11065;50.786;7.840;2023-03-23T15:27:09;4.57;;;0.90;;
21806;SDS011;11065;50.786;7.840;2023-03-23T15:29:46;1.00;;;0.60;;
21806;SDS011;11065;50.786;7.840;2023-03-23T15:32:19;3.60;;;0.80;;
21806;SDS011;11065;50.786;7.840;2023-03-23T15:34:51;1.83;;;0.67;;
21806;SDS011;11065;50.786;7.840;2023-03-23T15:37:19;2.10;;;0.67;;
21806;SDS011;11065;50.786;7.840;2023-03-23T15:39:50;2.23;;;0.80;;